sensor_id;sensor_type;location;lat;lon;timestamp;P1;durP1;ratioP1;P2;durP2;ratioP2
10557;SDS011;5327;47.238;-2.304;2023-05-02T00:01:11;8.87;;;3.63;;
10557;SDS011;5327;47.238;-2.304;2023-05-02T00:03:37;9.77;;;3.40;;
10557;SDS011;5327;47.238;-2.304;2023-05-02T00:06:03;9.47;;;3.87;;
10557;SDS011;5327;47.238;-2.304;2023-05-02T00:08:29;8.17;;;3.30;;
10557;SDS011;5327;47.238;-2.304;2023-05-02T00:10:55;10.27;;;2.90;;
10557;SDS011;5327;47.238;-2.304;2023-05-02T00:13:21;11.63;;;3.63;;
10557;SDS011;5327;47.238;-2.304;2023-05-02T00:15:47;15.63;;;5.03;;
10557;SDS011;5327;47.238;-2.304;2023-05-02T00:18:13;6.90;;;3.23;;
10557;SDS011;5327;47.238;-2.304;2023-05-02T00:20:39;7.13;;;3.10;;
10557;SDS011;5327;47.238;-2.304;2023-05-02T00:23:06;13.97;;;3.37;;
10557;SDS011;5327;47.238;-2.304;2023-05-02T00:25:32;9.53;;;3.30;;
10557;SDS011;5327;47.238;-2.304;2023-05-02T00:27:58;9.90;;;3.77;;
10557;SDS011;5327;47.238;-2.304;2023-05-02T00:30:24;8.73;;;3.80;;
10557;SDS011;5327;47.238;-2.304;2023-05-02T00:32:50;5.90;;;2.60;;
10557;SDS011;5327;47.238;-2.304;2023-05-02T00:35:18;18.97;;;4.93;;
10557;SDS011;5327;47.238;-2.304;2023-05-02T00:37:44;11.27;;;3.30;;
10557;SDS011;5327;47.238;-2.304;2023-05-02T00:40:10;10.90;;;3.80;;
10557;SDS011;5327;47.238;-2.304;2023-05-02T00:42:36;10.13;;;3.80;;
10557;SDS011;5327;47.238;-2.304;2023-05-02T00:45:02;12.93;;;4.20;;
10557;SDS011;5327;47.238;-2.304;2023-05-02T00:47:30;7.87;;;3.87;;
10557;SDS011;5327;47.238;-2.304;2023-05-02T00:49:56;9.30;;;3.77;;
10557;SDS011;5327;47.238;-2.304;2023-05-02T00:52:23;7.00;;;3.20;;
10557;SDS011;5327;47.238;-2.304;2023-05-02T00:54:49;9.37;;;3.60;;
10557;SDS011;5327;47.238;-2.304;2023-05-02T00:57:15;10.83;;;3.77;;
10557;SDS011;5327;47.238;-2.304;2023-05-02T00:59:41;10.00;;;2.77;;
10557;SDS011;5327;47.238;-2.304;2023-05-02T01:04:58;12.30;;;4.07;;
10557;SDS011;5327;47.238;-2.304;2023-05-02T01:10:27;10.83;;;3.47;;
10557;SDS011;5327;47.238;-2.304;2023-05-02T01:15:21;10.00;;;3.60;;
10557;SDS011;5327;47.238;-2.304;2023-05-02T01:17:48;10.40;;;3.90;;
10557;SDS011;5327;47.238;-2.304;2023-05-02T01:20:16;12.33;;;3.37;;
10557;SDS011;5327;47.238;-2.304;2023-05-02T01:22:44;10.03;;;3.87;;
10557;SDS011;5327;47.238;-2.304;2023-05-02T01:30:11;8.53;;;3.10;;
10557;SDS011;5327;47.238;-2.304;2023-05-02T01:32:40;8.83;;;3.70;;
10557;SDS011;5327;47.238;-2.304;2023-05-02T01:35:08;11.33;;;3.27;;
10557;SDS011;5327;47.238;-2.304;2023-05-02T01:37:36;12.00;;;4.20;;
10557;SDS011;5327;47.238;-2.304;2023-05-02T01:40:03;9.17;;;3.83;;
10557;SDS011;5327;47.238;-2.304;2023-05-02T01:42:30;13.20;;;3.87;;
10557;SDS011;5327;47.238;-2.304;2023-05-02T01:44:57;10.97;;;3.80;;
10557;SDS011;5327;47.238;-2.304;2023-05-02T01:47:23;9.53;;;3.30;;
10557;SDS011;5327;47.238;-2.304;2023-05-02T01:49:50;11.93;;;3.50;;
10557;SDS011;5327;47.238;-2.304;2023-05-02T01:52:16;7.20;;;3.33;;
10557;SDS011;5327;47.238;-2.304;2023-05-02T01:54:45;9.77;;;3.97;;
10557;SDS011;5327;47.238;-2.304;2023-05-02T01:57:12;14.10;;;3.57;;
10557;SDS011;5327;47.238;-2.304;2023-05-02T01:59:40;9.50;;;3.63;;
10557;SDS011;5327;47.238;-2.304;2023-05-02T02:02:08;9.20;;;3.30;;
10557;SDS011;5327;47.238;-2.304;2023-05-02T02:04:36;11.07;;;4.00;;
10557;SDS011;5327;47.238;-2.304;2023-05-02T02:07:05;9.90;;;3.53;;
10557;SDS011;5327;47.238;-2.304;2023-05-02T02:09:31;10.30;;;3.47;;
10557;SDS011;5327;47.238;-2.304;2023-05-02T02:12:02;13.00;;;4.00;;
10557;SDS011;5327;47.238;-2.304;2023-05-02T02:14:33;7.53;;;3.67;;
10557;SDS011;5327;47.238;-2.304;2023-05-02T02:17:03;12.20;;;4.00;;
10557;SDS011;5327;47.238;-2.304;2023-05-02T02:19:30;9.80;;;3.90;;
10557;SDS011;5327;47.238;-2.304;2023-05-02T02:21:58;6.90;;;3.40;;
10557;SDS011;5327;47.238;-2.304;2023-05-02T02:24:25;12.90;;;3.80;;
10557;SDS011;5327;47.238;-2.304;2023-05-02T02:26:51;11.40;;;3.43;;
10557;SDS011;5327;47.238;-2.304;2023-05-02T02:29:17;10.20;;;3.20;;
10557;SDS011;5327;47.238;-2.304;2023-05-02T02:31:43;12.07;;;3.03;;
10557;SDS011;5327;47.238;-2.304;2023-05-02T02:34:09;10.07;;;3.23;;
10557;SDS011;5327;47.238;-2.304;2023-05-02T02:39:20;11.83;;;3.30;;
10557;SDS011;5327;47.238;-2.304;2023-05-02T02:41:58;9.40;;;3.60;;
10557;SDS011;5327;47.238;-2.304;2023-05-02T02:49:32;9.50;;;4.10;;
10557;SDS011;5327;47.238;-2.304;2023-05-02T02:52:09;11.90;;;3.63;;
10557;SDS011;5327;47.238;-2.304;2023-05-02T02:57:32;10.57;;;3.63;;
10557;SDS011;5327;47.238;-2.304;2023-05-02T02:59:58;13.30;;;3.87;;
10557;SDS011;5327;47.238;-2.304;2023-05-02T03:02:27;10.60;;;3.70;;
10557;SDS011;5327;47.238;-2.304;2023-05-02T03:04:56;11.93;;;4.40;;
10557;SDS011;5327;47.238;-2.304;2023-05-02T03:07:22;11.87;;;3.97;;
10557;SDS011;5327;47.238;-2.304;2023-05-02T03:09:48;9.83;;;3.80;;
10557;SDS011;5327;47.238;-2.304;2023-05-02T03:12:14;8.23;;;3.40;;
10557;SDS011;5327;47.238;-2.304;2023-05-02T03:14:40;7.80;;;3.60;;
10557;SDS011;5327;47.238;-2.304;2023-05-02T03:17:07;12.80;;;3.90;;
10557;SDS011;5327;47.238;-2.304;2023-05-02T03:19:33;9.40;;;4.30;;
10557;SDS011;5327;47.238;-2.304;2023-05-02T03:21:59;9.80;;;3.47;;
10557;SDS011;5327;47.238;-2.304;2023-05-02T03:24:25;10.17;;;3.97;;
10557;SDS011;5327;47.238;-2.304;2023-05-02T03:26:55;10.10;;;3.97;;
10557;SDS011;5327;47.238;-2.304;2023-05-02T03:29:21;7.77;;;3.17;;
10557;SDS011;5327;47.238;-2.304;2023-05-02T03:31:47;9.90;;;3.37;;
10557;SDS011;5327;47.238;-2.304;2023-05-02T03:34:13;15.80;;;3.80;;
10557;SDS011;5327;47.238;-2.304;2023-05-02T03:36:39;10.87;;;4.30;;
10557;SDS011;5327;47.238;-2.304;2023-05-02T03:39:05;10.47;;;4.20;;
10557;SDS011;5327;47.238;-2.304;2023-05-02T03:41:31;12.10;;;4.27;;
10557;SDS011;5327;47.238;-2.304;2023-05-02T03:43:57;14.70;;;4.97;;
10557;SDS011;5327;47.238;-2.304;2023-05-02T03:46:23;9.27;;;3.90;;
10557;SDS011;5327;47.238;-2.304;2023-05-02T03:48:49;13.10;;;4.70;;
10557;SDS011;5327;47.238;-2.304;2023-05-02T03:51:15;10.00;;;3.70;;
10557;SDS011;5327;47.238;-2.304;2023-05-02T03:53:41;9.77;;;4.00;;
10557;SDS011;5327;47.238;-2.304;2023-05-02T03:56:08;12.30;;;4.10;;
10557;SDS011;5327;47.238;-2.304;2023-05-02T03:58:34;13.50;;;4.03;;
10557;SDS011;5327;47.238;-2.304;2023-05-02T04:01:00;9.10;;;4.40;;
10557;SDS011;5327;47.238;-2.304;2023-05-02T04:03:27;11.53;;;4.00;;
10557;SDS011;5327;47.238;-2.304;2023-05-02T04:05:53;12.00;;;4.70;;
10557;SDS011;5327;47.238;-2.304;2023-05-02T04:08:19;8.73;;;3.67;;
10557;SDS011;5327;47.238;-2.304;2023-05-02T04:10:45;7.27;;;3.60;;
10557;SDS011;5327;47.238;-2.304;2023-05-02T04:13:11;10.93;;;3.70;;
10557;SDS011;5327;47.238;-2.304;2023-05-02T04:15:37;9.10;;;3.37;;
10557;SDS011;5327;47.238;-2.304;2023-05-02T04:18:03;8.80;;;3.57;;
10557;SDS011;5327;47.238;-2.304;2023-05-02T04:20:29;14.33;;;3.80;;
10557;SDS011;5327;47.238;-2.304;2023-05-02T04:22:55;9.97;;;4.43;;
10557;SDS011;5327;47.238;-2.304;2023-05-02T04:25:21;9.33;;;4.53;;
10557;SDS011;5327;47.238;-2.304;2023-05-02T04:27:47;11.20;;;4.37;;
10557;SDS011;5327;47.238;-2.304;2023-05-02T04:30:13;9.27;;;4.00;;
10557;SDS011;5327;47.238;-2.304;2023-05-02T04:32:39;9.73;;;3.50;;
10557;SDS011;5327;47.238;-2.304;2023-05-02T04:35:05;13.60;;;3.93;;
10557;SDS011;5327;47.238;-2.304;2023-05-02T04:37:32;11.73;;;4.70;;
10557;SDS011;5327;47.238;-2.304;2023-05-02T04:39:58;12.60;;;4.87;;
10557;SDS011;5327;47.238;-2.304;2023-05-02T04:42:24;8.27;;;3.40;;
10557;SDS011;5327;47.238;-2.304;2023-05-02T04:44:50;9.43;;;4.50;;
10557;SDS011;5327;47.238;-2.304;2023-05-02T04:47:16;14.83;;;5.00;;
10557;SDS011;5327;47.238;-2.304;2023-05-02T04:49:42;16.90;;;5.00;;
10557;SDS011;5327;47.238;-2.304;2023-05-02T04:52:08;14.97;;;4.60;;
10557;SDS011;5327;47.238;-2.304;2023-05-02T04:54:34;17.73;;;5.23;;
10557;SDS011;5327;47.238;-2.304;2023-05-02T04:57:00;12.20;;;4.40;;
10557;SDS011;5327;47.238;-2.304;2023-05-02T04:59:30;11.00;;;3.53;;
10557;SDS011;5327;47.238;-2.304;2023-05-02T05:01:56;6.00;;;4.33;;
10557;SDS011;5327;47.238;-2.304;2023-05-02T05:04:23;9.73;;;4.27;;
10557;SDS011;5327;47.238;-2.304;2023-05-02T05:06:49;9.70;;;3.77;;
10557;SDS011;5327;47.238;-2.304;2023-05-02T05:09:15;10.77;;;6.33;;
10557;SDS011;5327;47.238;-2.304;2023-05-02T05:11:41;7.33;;;4.53;;
10557;SDS011;5327;47.238;-2.304;2023-05-02T05:14:10;6.40;;;4.10;;
10557;SDS011;5327;47.238;-2.304;2023-05-02T05:16:36;13.83;;;4.13;;
10557;SDS011;5327;47.238;-2.304;2023-05-02T05:19:03;8.73;;;4.17;;
10557;SDS011;5327;47.238;-2.304;2023-05-02T05:21:29;6.37;;;4.00;;
10557;SDS011;5327;47.238;-2.304;2023-05-02T05:23:55;9.30;;;4.10;;
10557;SDS011;5327;47.238;-2.304;2023-05-02T05:26:21;9.00;;;4.50;;
10557;SDS011;5327;47.238;-2.304;2023-05-02T05:28:49;11.63;;;4.40;;
10557;SDS011;5327;47.238;-2.304;2023-05-02T05:31:15;7.93;;;4.00;;
10557;SDS011;5327;47.238;-2.304;2023-05-02T05:33:41;7.73;;;4.20;;
10557;SDS011;5327;47.238;-2.304;2023-05-02T05:36:09;9.43;;;4.80;;
10557;SDS011;5327;47.238;-2.304;2023-05-02T05:38:35;11.50;;;5.20;;
10557;SDS011;5327;47.238;-2.304;2023-05-02T05:41:01;13.80;;;6.27;;
10557;SDS011;5327;47.238;-2.304;2023-05-02T05:43:28;12.23;;;5.40;;
10557;SDS011;5327;47.238;-2.304;2023-05-02T05:45:55;12.00;;;5.60;;
10557;SDS011;5327;47.238;-2.304;2023-05-02T05:48:21;10.20;;;5.60;;
10557;SDS011;5327;47.238;-2.304;2023-05-02T05:50:47;10.40;;;5.10;;
10557;SDS011;5327;47.238;-2.304;2023-05-02T05:53:13;11.63;;;5.00;;
10557;SDS011;5327;47.238;-2.304;2023-05-02T05:55:39;12.43;;;5.80;;
10557;SDS011;5327;47.238;-2.304;2023-05-02T05:58:06;11.20;;;5.27;;
10557;SDS011;5327;47.238;-2.304;2023-05-02T06:00:38;12.10;;;5.60;;
10557;SDS011;5327;47.238;-2.304;2023-05-02T06:03:05;12.77;;;6.27;;
10557;SDS011;5327;47.238;-2.304;2023-05-02T06:05:32;22.43;;;8.23;;
10557;SDS011;5327;47.238;-2.304;2023-05-02T06:07:58;21.90;;;7.03;;
10557;SDS011;5327;47.238;-2.304;2023-05-02T06:10:24;13.10;;;6.40;;
10557;SDS011;5327;47.238;-2.304;2023-05-02T06:12:51;11.40;;;5.47;;
10557;SDS011;5327;47.238;-2.304;2023-05-02T06:15:17;15.77;;;6.60;;
10557;SDS011;5327;47.238;-2.304;2023-05-02T06:17:43;13.70;;;7.43;;
10557;SDS011;5327;47.238;-2.304;2023-05-02T06:20:09;19.97;;;6.60;;
10557;SDS011;5327;47.238;-2.304;2023-05-02T06:22:35;9.90;;;5.70;;
10557;SDS011;5327;47.238;-2.304;2023-05-02T06:25:01;13.60;;;6.03;;
10557;SDS011;5327;47.238;-2.304;2023-05-02T06:27:29;16.60;;;8.30;;
10557;SDS011;5327;47.238;-2.304;2023-05-02T06:29:55;15.27;;;6.40;;
10557;SDS011;5327;47.238;-2.304;2023-05-02T06:32:21;12.10;;;6.33;;
10557;SDS011;5327;47.238;-2.304;2023-05-02T06:34:47;9.40;;;5.97;;
10557;SDS011;5327;47.238;-2.304;2023-05-02T06:37:13;11.10;;;6.40;;
10557;SDS011;5327;47.238;-2.304;2023-05-02T06:39:39;13.90;;;5.90;;
10557;SDS011;5327;47.238;-2.304;2023-05-02T06:42:05;13.63;;;5.63;;
10557;SDS011;5327;47.238;-2.304;2023-05-02T06:44:31;11.70;;;6.90;;
10557;SDS011;5327;47.238;-2.304;2023-05-02T06:46:57;14.20;;;5.10;;
10557;SDS011;5327;47.238;-2.304;2023-05-02T06:49:25;14.50;;;5.80;;
10557;SDS011;5327;47.238;-2.304;2023-05-02T06:51:51;16.10;;;6.20;;
10557;SDS011;5327;47.238;-2.304;2023-05-02T06:54:17;9.30;;;5.17;;
10557;SDS011;5327;47.238;-2.304;2023-05-02T06:56:43;10.30;;;6.03;;
10557;SDS011;5327;47.238;-2.304;2023-05-02T06:59:09;9.17;;;5.23;;
10557;SDS011;5327;47.238;-2.304;2023-05-02T07:01:35;16.83;;;6.07;;
10557;SDS011;5327;47.238;-2.304;2023-05-02T07:04:01;9.83;;;5.33;;
10557;SDS011;5327;47.238;-2.304;2023-05-02T07:06:31;18.20;;;4.80;;
10557;SDS011;5327;47.238;-2.304;2023-05-02T07:08:57;11.43;;;5.93;;
10557;SDS011;5327;47.238;-2.304;2023-05-02T07:11:23;10.27;;;6.60;;
10557;SDS011;5327;47.238;-2.304;2023-05-02T07:13:51;13.63;;;6.20;;
10557;SDS011;5327;47.238;-2.304;2023-05-02T07:16:17;12.07;;;6.30;;
10557;SDS011;5327;47.238;-2.304;2023-05-02T07:18:44;9.80;;;6.50;;
10557;SDS011;5327;47.238;-2.304;2023-05-02T07:21:10;11.30;;;8.30;;
10557;SDS011;5327;47.238;-2.304;2023-05-02T07:23:37;11.47;;;7.90;;
10557;SDS011;5327;47.238;-2.304;2023-05-02T07:26:04;16.03;;;8.20;;
10557;SDS011;5327;47.238;-2.304;2023-05-02T07:28:30;12.00;;;8.13;;
10557;SDS011;5327;47.238;-2.304;2023-05-02T07:30:56;10.70;;;8.30;;
10557;SDS011;5327;47.238;-2.304;2023-05-02T07:33:22;13.87;;;9.77;;
10557;SDS011;5327;47.238;-2.304;2023-05-02T07:35:48;15.47;;;10.83;;
10557;SDS011;5327;47.238;-2.304;2023-05-02T07:38:15;27.33;;;13.70;;
10557;SDS011;5327;47.238;-2.304;2023-05-02T07:40:41;18.17;;;12.23;;
10557;SDS011;5327;47.238;-2.304;2023-05-02T07:43:07;24.00;;;15.17;;
10557;SDS011;5327;47.238;-2.304;2023-05-02T07:45:34;26.90;;;16.70;;
10557;SDS011;5327;47.238;-2.304;2023-05-02T07:48:00;23.00;;;15.97;;
10557;SDS011;5327;47.238;-2.304;2023-05-02T07:50:26;33.73;;;19.93;;
10557;SDS011;5327;47.238;-2.304;2023-05-02T07:52:53;28.93;;;19.10;;
10557;SDS011;5327;47.238;-2.304;2023-05-02T07:55:20;32.27;;;18.30;;
10557;SDS011;5327;47.238;-2.304;2023-05-02T07:57:46;28.70;;;17.70;;
10557;SDS011;5327;47.238;-2.304;2023-05-02T08:00:12;27.73;;;19.93;;
10557;SDS011;5327;47.238;-2.304;2023-05-02T08:02:39;34.63;;;21.00;;
10557;SDS011;5327;47.238;-2.304;2023-05-02T08:05:05;33.33;;;22.60;;
10557;SDS011;5327;47.238;-2.304;2023-05-02T08:07:31;29.27;;;18.67;;
10557;SDS011;5327;47.238;-2.304;2023-05-02T08:09:59;26.10;;;17.70;;
10557;SDS011;5327;47.238;-2.304;2023-05-02T08:12:25;37.10;;;22.30;;
10557;SDS011;5327;47.238;-2.304;2023-05-02T08:14:51;34.43;;;21.23;;
10557;SDS011;5327;47.238;-2.304;2023-05-02T08:17:18;33.33;;;20.67;;
10557;SDS011;5327;47.238;-2.304;2023-05-02T08:19:44;25.77;;;18.40;;
10557;SDS011;5327;47.238;-2.304;2023-05-02T08:22:10;20.53;;;12.57;;
10557;SDS011;5327;47.238;-2.304;2023-05-02T08:24:36;27.10;;;16.10;;
10557;SDS011;5327;47.238;-2.304;2023-05-02T08:27:02;30.57;;;21.03;;
10557;SDS011;5327;47.238;-2.304;2023-05-02T08:29:29;28.47;;;15.50;;
10557;SDS011;5327;47.238;-2.304;2023-05-02T08:31:55;17.90;;;12.70;;
10557;SDS011;5327;47.238;-2.304;2023-05-02T08:34:21;20.03;;;14.70;;
10557;SDS011;5327;47.238;-2.304;2023-05-02T08:36:47;15.80;;;10.80;;
10557;SDS011;5327;47.238;-2.304;2023-05-02T08:39:13;15.80;;;10.63;;
10557;SDS011;5327;47.238;-2.304;2023-05-02T08:41:41;15.57;;;11.20;;
10557;SDS011;5327;47.238;-2.304;2023-05-02T08:44:07;17.77;;;12.33;;
10557;SDS011;5327;47.238;-2.304;2023-05-02T08:46:36;18.10;;;10.70;;
10557;SDS011;5327;47.238;-2.304;2023-05-02T08:49:05;15.77;;;11.07;;
10557;SDS011;5327;47.238;-2.304;2023-05-02T08:51:32;13.93;;;9.30;;
10557;SDS011;5327;47.238;-2.304;2023-05-02T08:54:01;9.73;;;5.20;;
10557;SDS011;5327;47.238;-2.304;2023-05-02T08:56:27;15.17;;;8.80;;
10557;SDS011;5327;47.238;-2.304;2023-05-02T08:58:54;14.70;;;6.13;;
10557;SDS011;5327;47.238;-2.304;2023-05-02T09:01:21;9.77;;;5.50;;
10557;SDS011;5327;47.238;-2.304;2023-05-02T09:03:48;9.23;;;4.67;;
10557;SDS011;5327;47.238;-2.304;2023-05-02T09:06:14;7.50;;;4.40;;
10557;SDS011;5327;47.238;-2.304;2023-05-02T09:08:41;12.90;;;5.53;;
10557;SDS011;5327;47.238;-2.304;2023-05-02T09:11:09;9.00;;;4.43;;
10557;SDS011;5327;47.238;-2.304;2023-05-02T09:18:28;14.37;;;6.17;;
10557;SDS011;5327;47.238;-2.304;2023-05-02T09:20:57;10.20;;;4.03;;
10557;SDS011;5327;47.238;-2.304;2023-05-02T09:23:33;9.70;;;4.60;;
10557;SDS011;5327;47.238;-2.304;2023-05-02T09:26:00;8.77;;;4.47;;
10557;SDS011;5327;47.238;-2.304;2023-05-02T09:28:39;8.40;;;4.17;;
10557;SDS011;5327;47.238;-2.304;2023-05-02T09:31:06;8.93;;;4.20;;
10557;SDS011;5327;47.238;-2.304;2023-05-02T09:33:33;8.47;;;4.60;;
10557;SDS011;5327;47.238;-2.304;2023-05-02T09:35:59;9.23;;;4.50;;
10557;SDS011;5327;47.238;-2.304;2023-05-02T09:38:25;10.33;;;4.63;;
10557;SDS011;5327;47.238;-2.304;2023-05-02T09:40:54;13.43;;;4.77;;
10557;SDS011;5327;47.238;-2.304;2023-05-02T09:43:20;12.80;;;5.30;;
10557;SDS011;5327;47.238;-2.304;2023-05-02T09:45:57;9.50;;;4.27;;
10557;SDS011;5327;47.238;-2.304;2023-05-02T09:48:24;7.73;;;3.93;;
10557;SDS011;5327;47.238;-2.304;2023-05-02T09:50:50;20.47;;;6.43;;
10557;SDS011;5327;47.238;-2.304;2023-05-02T09:53:17;11.60;;;5.60;;
10557;SDS011;5327;47.238;-2.304;2023-05-02T09:55:43;7.17;;;3.93;;
10557;SDS011;5327;47.238;-2.304;2023-05-02T09:58:22;11.37;;;5.03;;
10557;SDS011;5327;47.238;-2.304;2023-05-02T10:00:49;12.30;;;4.13;;
10557;SDS011;5327;47.238;-2.304;2023-05-02T10:03:16;7.03;;;3.90;;
10557;SDS011;5327;47.238;-2.304;2023-05-02T10:05:43;7.60;;;4.20;;
10557;SDS011;5327;47.238;-2.304;2023-05-02T10:08:09;10.63;;;4.93;;
10557;SDS011;5327;47.238;-2.304;2023-05-02T10:10:37;8.60;;;4.57;;
10557;SDS011;5327;47.238;-2.304;2023-05-02T10:13:04;8.40;;;4.90;;
10557;SDS011;5327;47.238;-2.304;2023-05-02T10:15:30;11.70;;;5.30;;
10557;SDS011;5327;47.238;-2.304;2023-05-02T10:17:58;9.70;;;5.27;;
10557;SDS011;5327;47.238;-2.304;2023-05-02T10:20:28;11.43;;;5.00;;
10557;SDS011;5327;47.238;-2.304;2023-05-02T10:22:55;9.60;;;4.93;;
10557;SDS011;5327;47.238;-2.304;2023-05-02T10:25:24;9.43;;;4.73;;
10557;SDS011;5327;47.238;-2.304;2023-05-02T10:27:50;11.00;;;4.80;;
10557;SDS011;5327;47.238;-2.304;2023-05-02T10:30:16;9.20;;;4.70;;
10557;SDS011;5327;47.238;-2.304;2023-05-02T10:32:47;13.47;;;5.87;;
10557;SDS011;5327;47.238;-2.304;2023-05-02T10:35:14;9.60;;;5.70;;
10557;SDS011;5327;47.238;-2.304;2023-05-02T10:37:40;11.93;;;5.97;;
10557;SDS011;5327;47.238;-2.304;2023-05-02T10:40:10;10.40;;;5.70;;
10557;SDS011;5327;47.238;-2.304;2023-05-02T10:42:37;10.20;;;5.63;;
10557;SDS011;5327;47.238;-2.304;2023-05-02T10:45:09;12.73;;;6.07;;
10557;SDS011;5327;47.238;-2.304;2023-05-02T10:47:35;11.90;;;4.80;;
10557;SDS011;5327;47.238;-2.304;2023-05-02T10:50:02;16.93;;;5.27;;
10557;SDS011;5327;47.238;-2.304;2023-05-02T10:52:33;15.20;;;6.40;;
10557;SDS011;5327;47.238;-2.304;2023-05-02T10:58:18;13.27;;;5.23;;
10557;SDS011;5327;47.238;-2.304;2023-05-02T11:00:39;15.73;;;5.40;;
10557;SDS011;5327;47.238;-2.304;2023-05-02T11:03:05;14.67;;;5.83;;
10557;SDS011;5327;47.238;-2.304;2023-05-02T11:05:31;18.07;;;6.90;;
10557;SDS011;5327;47.238;-2.304;2023-05-02T11:10:46;11.30;;;5.23;;
10557;SDS011;5327;47.238;-2.304;2023-05-02T11:13:12;12.30;;;5.80;;
10557;SDS011;5327;47.238;-2.304;2023-05-02T11:20:34;15.90;;;6.17;;
10557;SDS011;5327;47.238;-2.304;2023-05-02T11:28:52;11.13;;;5.17;;
10557;SDS011;5327;47.238;-2.304;2023-05-02T11:33:56;14.20;;;5.87;;
10557;SDS011;5327;47.238;-2.304;2023-05-02T11:36:28;15.43;;;6.13;;
10557;SDS011;5327;47.238;-2.304;2023-05-02T11:38:54;14.53;;;6.13;;
10557;SDS011;5327;47.238;-2.304;2023-05-02T11:41:20;14.00;;;5.50;;
10557;SDS011;5327;47.238;-2.304;2023-05-02T11:43:46;12.37;;;5.23;;
10557;SDS011;5327;47.238;-2.304;2023-05-02T11:46:13;11.73;;;5.80;;
10557;SDS011;5327;47.238;-2.304;2023-05-02T11:48:40;10.50;;;5.67;;
10557;SDS011;5327;47.238;-2.304;2023-05-02T11:51:06;10.00;;;5.40;;
10557;SDS011;5327;47.238;-2.304;2023-05-02T11:53:32;12.43;;;6.47;;
10557;SDS011;5327;47.238;-2.304;2023-05-02T11:56:00;9.10;;;4.40;;
10557;SDS011;5327;47.238;-2.304;2023-05-02T11:58:27;18.47;;;5.53;;
10557;SDS011;5327;47.238;-2.304;2023-05-02T12:00:54;14.43;;;6.50;;
10557;SDS011;5327;47.238;-2.304;2023-05-02T12:03:31;10.73;;;5.43;;
10557;SDS011;5327;47.238;-2.304;2023-05-02T12:06:06;11.37;;;5.77;;
10557;SDS011;5327;47.238;-2.304;2023-05-02T12:08:35;9.40;;;5.40;;
10557;SDS011;5327;47.238;-2.304;2023-05-02T12:11:01;20.90;;;7.20;;
10557;SDS011;5327;47.238;-2.304;2023-05-02T12:13:27;19.33;;;7.90;;
10557;SDS011;5327;47.238;-2.304;2023-05-02T12:15:54;14.70;;;6.60;;
10557;SDS011;5327;47.238;-2.304;2023-05-02T12:18:21;12.63;;;6.77;;
10557;SDS011;5327;47.238;-2.304;2023-05-02T12:20:48;12.97;;;6.43;;
10557;SDS011;5327;47.238;-2.304;2023-05-02T12:23:15;14.57;;;6.70;;
10557;SDS011;5327;47.238;-2.304;2023-05-02T12:25:42;19.83;;;7.80;;
10557;SDS011;5327;47.238;-2.304;2023-05-02T12:28:08;12.60;;;6.37;;
10557;SDS011;5327;47.238;-2.304;2023-05-02T12:30:36;23.27;;;6.87;;
10557;SDS011;5327;47.238;-2.304;2023-05-02T12:33:02;12.37;;;6.30;;
10557;SDS011;5327;47.238;-2.304;2023-05-02T12:35:29;18.40;;;6.40;;
10557;SDS011;5327;47.238;-2.304;2023-05-02T12:38:11;16.37;;;6.20;;
10557;SDS011;5327;47.238;-2.304;2023-05-02T12:40:44;19.30;;;6.00;;
10557;SDS011;5327;47.238;-2.304;2023-05-02T12:43:11;15.03;;;6.83;;
10557;SDS011;5327;47.238;-2.304;2023-05-02T12:45:37;16.07;;;6.50;;
10557;SDS011;5327;47.238;-2.304;2023-05-02T12:48:36;10.90;;;4.70;;
10557;SDS011;5327;47.238;-2.304;2023-05-02T12:50:55;12.40;;;5.93;;
10557;SDS011;5327;47.238;-2.304;2023-05-02T12:53:40;16.80;;;6.93;;
10557;SDS011;5327;47.238;-2.304;2023-05-02T12:56:07;12.10;;;5.90;;
10557;SDS011;5327;47.238;-2.304;2023-05-02T13:01:07;14.10;;;6.83;;
10557;SDS011;5327;47.238;-2.304;2023-05-02T13:03:33;12.10;;;6.40;;
10557;SDS011;5327;47.238;-2.304;2023-05-02T13:06:00;12.60;;;6.70;;
10557;SDS011;5327;47.238;-2.304;2023-05-02T13:08:26;11.93;;;7.00;;
10557;SDS011;5327;47.238;-2.304;2023-05-02T13:10:52;16.43;;;6.30;;
10557;SDS011;5327;47.238;-2.304;2023-05-02T13:13:18;13.17;;;6.27;;
10557;SDS011;5327;47.238;-2.304;2023-05-02T13:15:44;13.33;;;6.00;;
10557;SDS011;5327;47.238;-2.304;2023-05-02T13:18:10;18.13;;;6.03;;
10557;SDS011;5327;47.238;-2.304;2023-05-02T13:20:36;18.40;;;6.80;;
10557;SDS011;5327;47.238;-2.304;2023-05-02T13:23:02;13.67;;;6.07;;
10557;SDS011;5327;47.238;-2.304;2023-05-02T13:25:29;12.90;;;6.33;;
10557;SDS011;5327;47.238;-2.304;2023-05-02T13:27:55;10.63;;;5.60;;
10557;SDS011;5327;47.238;-2.304;2023-05-02T13:30:21;18.00;;;7.30;;
10557;SDS011;5327;47.238;-2.304;2023-05-02T13:32:47;16.33;;;6.23;;
10557;SDS011;5327;47.238;-2.304;2023-05-02T13:35:13;41.47;;;13.40;;
10557;SDS011;5327;47.238;-2.304;2023-05-02T13:37:40;16.73;;;6.60;;
10557;SDS011;5327;47.238;-2.304;2023-05-02T13:40:06;14.63;;;6.03;;
10557;SDS011;5327;47.238;-2.304;2023-05-02T13:42:32;11.70;;;5.50;;
10557;SDS011;5327;47.238;-2.304;2023-05-02T13:44:59;12.80;;;5.93;;
10557;SDS011;5327;47.238;-2.304;2023-05-02T13:47:29;14.77;;;5.93;;
10557;SDS011;5327;47.238;-2.304;2023-05-02T13:49:55;14.97;;;6.50;;
10557;SDS011;5327;47.238;-2.304;2023-05-02T13:52:21;20.93;;;6.90;;
10557;SDS011;5327;47.238;-2.304;2023-05-02T13:54:47;11.27;;;5.13;;
10557;SDS011;5327;47.238;-2.304;2023-05-02T13:57:13;22.37;;;6.13;;
10557;SDS011;5327;47.238;-2.304;2023-05-02T13:59:39;10.30;;;4.27;;
10557;SDS011;5327;47.238;-2.304;2023-05-02T14:02:06;14.00;;;6.53;;
10557;SDS011;5327;47.238;-2.304;2023-05-02T14:04:32;11.03;;;4.73;;
10557;SDS011;5327;47.238;-2.304;2023-05-02T14:06:58;10.93;;;5.17;;
10557;SDS011;5327;47.238;-2.304;2023-05-02T14:09:24;11.57;;;5.03;;
10557;SDS011;5327;47.238;-2.304;2023-05-02T14:11:50;17.63;;;6.47;;
10557;SDS011;5327;47.238;-2.304;2023-05-02T14:14:16;15.67;;;6.27;;
10557;SDS011;5327;47.238;-2.304;2023-05-02T14:16:42;16.90;;;6.70;;
10557;SDS011;5327;47.238;-2.304;2023-05-02T14:19:08;11.53;;;5.10;;
10557;SDS011;5327;47.238;-2.304;2023-05-02T14:21:35;12.57;;;5.47;;
10557;SDS011;5327;47.238;-2.304;2023-05-02T14:24:02;12.90;;;5.80;;
10557;SDS011;5327;47.238;-2.304;2023-05-02T14:26:28;16.57;;;5.33;;
10557;SDS011;5327;47.238;-2.304;2023-05-02T14:28:55;14.20;;;5.10;;
10557;SDS011;5327;47.238;-2.304;2023-05-02T14:31:21;11.03;;;4.40;;
10557;SDS011;5327;47.238;-2.304;2023-05-02T14:33:47;12.40;;;4.93;;
10557;SDS011;5327;47.238;-2.304;2023-05-02T14:36:13;10.87;;;5.00;;
10557;SDS011;5327;47.238;-2.304;2023-05-02T14:38:39;9.13;;;4.17;;
10557;SDS011;5327;47.238;-2.304;2023-05-02T14:41:05;9.30;;;3.93;;
10557;SDS011;5327;47.238;-2.304;2023-05-02T14:43:31;10.27;;;4.00;;
10557;SDS011;5327;47.238;-2.304;2023-05-02T14:45:57;8.30;;;3.57;;
10557;SDS011;5327;47.238;-2.304;2023-05-02T14:48:23;11.10;;;3.70;;
10557;SDS011;5327;47.238;-2.304;2023-05-02T14:50:49;7.43;;;3.43;;
10557;SDS011;5327;47.238;-2.304;2023-05-02T14:53:15;8.87;;;3.90;;
10557;SDS011;5327;47.238;-2.304;2023-05-02T14:55:42;10.13;;;3.40;;
10557;SDS011;5327;47.238;-2.304;2023-05-02T14:58:08;7.20;;;3.23;;
10557;SDS011;5327;47.238;-2.304;2023-05-02T15:00:35;13.73;;;3.77;;
10557;SDS011;5327;47.238;-2.304;2023-05-02T15:03:02;8.00;;;4.20;;
10557;SDS011;5327;47.238;-2.304;2023-05-02T15:05:28;15.90;;;5.90;;
10557;SDS011;5327;47.238;-2.304;2023-05-02T15:10:58;8.57;;;3.27;;
10557;SDS011;5327;47.238;-2.304;2023-05-02T15:13:24;8.77;;;3.67;;
10557;SDS011;5327;47.238;-2.304;2023-05-02T15:15:50;10.30;;;3.40;;
10557;SDS011;5327;47.238;-2.304;2023-05-02T15:18:18;7.47;;;2.83;;
10557;SDS011;5327;47.238;-2.304;2023-05-02T15:20:45;9.63;;;3.57;;
10557;SDS011;5327;47.238;-2.304;2023-05-02T15:23:11;8.60;;;3.80;;
10557;SDS011;5327;47.238;-2.304;2023-05-02T15:25:37;8.27;;;3.30;;
10557;SDS011;5327;47.238;-2.304;2023-05-02T15:28:03;7.70;;;3.03;;
10557;SDS011;5327;47.238;-2.304;2023-05-02T15:30:29;6.23;;;2.30;;